This is the latest recevied weather packets stored in our database for station/object N9EA. If no packets are shown the sender has not sent any weather packets the latest 10 day(s).
| Time | Temp. | Humidity | Pressure | Rain* | Wind** | Luminosity | Snow |
|---|---|---|---|---|---|---|---|
| 1778185774 | 15.56° C | 51% | 1009.9 hPa | 0 mm | - | 210 W/m² | - |
| 1778185471 | 16.11° C | 51% | 1010.1 hPa | 0 mm | - | 194 W/m² | - |
| 1778185166 | 17.22° C | 48% | 1010 hPa | 0 mm | - | 189 W/m² | - |
| 1778184856 | 17.78° C | 47% | 1010.1 hPa | 0 mm | - | 697 W/m² | - |
| 1778184553 | 17.22° C | 48% | 1010.1 hPa | 0 mm | - | 262 W/m² | - |
| 1778184249 | 17.22° C | 47% | 1010.4 hPa | 0 mm | - | 577 W/m² | - |
| 1778183945 | 16.67° C | 49% | 1010.4 hPa | 0 mm | - | 694 W/m² | - |
| 1778183643 | 16.67° C | 51% | 1010.4 hPa | 0 mm | - | 342 W/m² | - |
| 1778183340 | 16.67° C | 50% | 1010.5 hPa | 0 mm | - | 663 W/m² | - |
| 1778183036 | 16.67° C | 51% | 1010.8 hPa | 0 mm | - | 677 W/m² | - |
| 1778182732 | 16.11° C | 52% | 1010.6 hPa | 0 mm | - | 680 W/m² | - |
| 1778182430 | 16.11° C | 52% | 1010.6 hPa | 0 mm | - | 688 W/m² | - |
| 1778182126 | 16.11° C | 52% | 1010.6 hPa | 0 mm | - | 694 W/m² | - |
| 1778181822 | 16.11° C | 53% | 1011 hPa | 0 mm | - | 701 W/m² | - |
| 1778181519 | 16.11° C | 52% | 1010.8 hPa | 0 mm | - | 720 W/m² | - |
| 1778181215 | 15.56° C | 55% | 1010.8 hPa | 0 mm | - | 707 W/m² | - |
| 1778180912 | 15.56° C | 54% | 1011 hPa | 0 mm | - | 741 W/m² | - |
| 1778180610 | 15° C | 59% | 1011 hPa | 0 mm | - | 728 W/m² | - |
| 1778180309 | 15° C | 58% | 1011 hPa | 0 mm | - | 743 W/m² | - |
| 1778180005 | 14.44° C | 59% | 1011 hPa | 0 mm | - | 739 W/m² | - |
| 1778179702 | 14.44° C | 62% | 1011.3 hPa | 0 mm | - | 261 W/m² | - |
| 1778179401 | 13.89° C | 62% | 1011.2 hPa | 0 mm | - | 750 W/m² | - |
| 1778179097 | 14.44° C | 62% | 1011.2 hPa | 0 mm | - | 764 W/m² | - |
| 1778178794 | 13.89° C | 62% | 1011.3 hPa | 0 mm | - | 775 W/m² | - |
| 1778178492 | 13.89° C | 62% | 1011.2 hPa | 0 mm | - | 338 W/m² | - |
* Rain latest hour (hover to see other rain measurements)
** Current wind speed in m/s (hover to see current wind gust speed)